sensor_id;sensor_type;location;lat;lon;timestamp;P1;durP1;ratioP1;P2;durP2;ratioP2
59115;SDS011;53564;51.930;4.640;2022-10-16T00:02:20;8.30;;;2.25;;
59115;SDS011;53564;51.930;4.640;2022-10-16T00:04:46;8.57;;;2.28;;
59115;SDS011;53564;51.930;4.640;2022-10-16T00:07:11;7.63;;;2.67;;
59115;SDS011;53564;51.930;4.640;2022-10-16T00:09:36;7.95;;;2.20;;
59115;SDS011;53564;51.930;4.640;2022-10-16T00:12:01;8.23;;;2.20;;
59115;SDS011;53564;51.930;4.640;2022-10-16T00:14:28;13.35;;;2.90;;
59115;SDS011;53564;51.930;4.640;2022-10-16T00:16:54;5.85;;;2.30;;
59115;SDS011;53564;51.930;4.640;2022-10-16T00:19:19;9.32;;;2.63;;
59115;SDS011;53564;51.930;4.640;2022-10-16T00:21:44;6.28;;;2.30;;
59115;SDS011;53564;51.930;4.640;2022-10-16T00:24:09;8.73;;;2.50;;
59115;SDS011;53564;51.930;4.640;2022-10-16T00:26:35;8.55;;;2.70;;
59115;SDS011;53564;51.930;4.640;2022-10-16T00:29:02;6.43;;;2.20;;
59115;SDS011;53564;51.930;4.640;2022-10-16T00:31:28;8.57;;;2.22;;
59115;SDS011;53564;51.930;4.640;2022-10-16T00:33:54;6.75;;;2.20;;
59115;SDS011;53564;51.930;4.640;2022-10-16T00:36:21;8.45;;;2.28;;
59115;SDS011;53564;51.930;4.640;2022-10-16T00:38:47;7.93;;;2.65;;
59115;SDS011;53564;51.930;4.640;2022-10-16T00:41:17;7.60;;;2.50;;
59115;SDS011;53564;51.930;4.640;2022-10-16T00:43:44;6.57;;;2.28;;
59115;SDS011;53564;51.930;4.640;2022-10-16T00:46:37;9.45;;;2.50;;
59115;SDS011;53564;51.930;4.640;2022-10-16T00:49:00;7.35;;;2.60;;
59115;SDS011;53564;51.930;4.640;2022-10-16T00:51:30;9.95;;;2.63;;
59115;SDS011;53564;51.930;4.640;2022-10-16T00:54:01;9.73;;;2.58;;
59115;SDS011;53564;51.930;4.640;2022-10-16T00:56:28;9.82;;;2.33;;
59115;SDS011;53564;51.930;4.640;2022-10-16T00:58:54;10.40;;;2.28;;
59115;SDS011;53564;51.930;4.640;2022-10-16T01:01:19;6.32;;;2.40;;
59115;SDS011;53564;51.930;4.640;2022-10-16T01:03:45;9.18;;;2.60;;
59115;SDS011;53564;51.930;4.640;2022-10-16T01:06:24;8.65;;;2.70;;
59115;SDS011;53564;51.930;4.640;2022-10-16T01:09:02;6.55;;;2.38;;
59115;SDS011;53564;51.930;4.640;2022-10-16T01:17:28;7.43;;;2.40;;
59115;SDS011;53564;51.930;4.640;2022-10-16T01:20:45;7.53;;;2.47;;
59115;SDS011;53564;51.930;4.640;2022-10-16T01:28:20;5.10;;;1.88;;
59115;SDS011;53564;51.930;4.640;2022-10-16T01:30:49;11.70;;;2.50;;
59115;SDS011;53564;51.930;4.640;2022-10-16T01:33:21;6.80;;;2.38;;
59115;SDS011;53564;51.930;4.640;2022-10-16T01:35:53;8.52;;;2.83;;
59115;SDS011;53564;51.930;4.640;2022-10-16T01:38:23;8.48;;;2.33;;
59115;SDS011;53564;51.930;4.640;2022-10-16T01:40:59;7.03;;;2.50;;
59115;SDS011;53564;51.930;4.640;2022-10-16T01:43:31;7.25;;;2.55;;
59115;SDS011;53564;51.930;4.640;2022-10-16T01:46:00;8.90;;;2.85;;
59115;SDS011;53564;51.930;4.640;2022-10-16T01:48:26;8.57;;;2.50;;
59115;SDS011;53564;51.930;4.640;2022-10-16T01:50:55;8.75;;;2.80;;
59115;SDS011;53564;51.930;4.640;2022-10-16T01:53:26;6.95;;;2.47;;
59115;SDS011;53564;51.930;4.640;2022-10-16T01:55:52;8.85;;;2.92;;
59115;SDS011;53564;51.930;4.640;2022-10-16T01:58:20;7.55;;;2.78;;
59115;SDS011;53564;51.930;4.640;2022-10-16T02:00:48;8.00;;;2.70;;
59115;SDS011;53564;51.930;4.640;2022-10-16T02:03:16;9.00;;;2.60;;
59115;SDS011;53564;51.930;4.640;2022-10-16T02:05:45;8.20;;;2.60;;
59115;SDS011;53564;51.930;4.640;2022-10-16T02:08:14;8.23;;;2.67;;
59115;SDS011;53564;51.930;4.640;2022-10-16T02:10:39;8.02;;;2.60;;
59115;SDS011;53564;51.930;4.640;2022-10-16T02:13:06;8.07;;;2.75;;
59115;SDS011;53564;51.930;4.640;2022-10-16T02:15:35;7.65;;;2.60;;
59115;SDS011;53564;51.930;4.640;2022-10-16T02:18:01;10.60;;;2.80;;
59115;SDS011;53564;51.930;4.640;2022-10-16T02:20:28;8.05;;;3.08;;
59115;SDS011;53564;51.930;4.640;2022-10-16T02:23:01;11.18;;;2.80;;
59115;SDS011;53564;51.930;4.640;2022-10-16T02:25:32;9.82;;;2.92;;
59115;SDS011;53564;51.930;4.640;2022-10-16T02:28:08;9.40;;;2.85;;
59115;SDS011;53564;51.930;4.640;2022-10-16T02:30:44;8.90;;;2.70;;
59115;SDS011;53564;51.930;4.640;2022-10-16T02:33:13;9.23;;;2.78;;
59115;SDS011;53564;51.930;4.640;2022-10-16T02:35:41;9.57;;;2.78;;
59115;SDS011;53564;51.930;4.640;2022-10-16T02:38:08;8.07;;;2.60;;
59115;SDS011;53564;51.930;4.640;2022-10-16T02:40:35;8.02;;;2.75;;
59115;SDS011;53564;51.930;4.640;2022-10-16T02:43:02;6.55;;;2.42;;
59115;SDS011;53564;51.930;4.640;2022-10-16T02:45:29;8.60;;;2.50;;
59115;SDS011;53564;51.930;4.640;2022-10-16T02:47:54;6.85;;;2.42;;
59115;SDS011;53564;51.930;4.640;2022-10-16T02:50:20;7.93;;;2.63;;
59115;SDS011;53564;51.930;4.640;2022-10-16T02:52:45;6.95;;;2.38;;
59115;SDS011;53564;51.930;4.640;2022-10-16T02:55:11;6.47;;;2.00;;
59115;SDS011;53564;51.930;4.640;2022-10-16T02:57:36;9.75;;;2.47;;
59115;SDS011;53564;51.930;4.640;2022-10-16T03:00:03;8.10;;;2.45;;
59115;SDS011;53564;51.930;4.640;2022-10-16T03:02:29;7.65;;;2.58;;
59115;SDS011;53564;51.930;4.640;2022-10-16T03:04:54;12.98;;;3.92;;
59115;SDS011;53564;51.930;4.640;2022-10-16T03:07:20;7.22;;;2.22;;
59115;SDS011;53564;51.930;4.640;2022-10-16T03:09:45;8.27;;;2.45;;
59115;SDS011;53564;51.930;4.640;2022-10-16T03:12:10;8.55;;;2.65;;
59115;SDS011;53564;51.930;4.640;2022-10-16T03:14:36;6.97;;;2.20;;
59115;SDS011;53564;51.930;4.640;2022-10-16T03:17:02;8.75;;;2.47;;
59115;SDS011;53564;51.930;4.640;2022-10-16T03:19:27;7.88;;;2.80;;
59115;SDS011;53564;51.930;4.640;2022-10-16T03:21:52;7.35;;;2.30;;
59115;SDS011;53564;51.930;4.640;2022-10-16T03:24:18;7.43;;;2.50;;
59115;SDS011;53564;51.930;4.640;2022-10-16T03:26:43;6.57;;;2.63;;
59115;SDS011;53564;51.930;4.640;2022-10-16T03:29:08;9.20;;;3.20;;
59115;SDS011;53564;51.930;4.640;2022-10-16T03:31:33;7.70;;;2.40;;
59115;SDS011;53564;51.930;4.640;2022-10-16T03:33:59;8.50;;;2.53;;
59115;SDS011;53564;51.930;4.640;2022-10-16T03:36:24;8.63;;;2.35;;
59115;SDS011;53564;51.930;4.640;2022-10-16T03:38:49;8.13;;;2.10;;
59115;SDS011;53564;51.930;4.640;2022-10-16T03:41:15;9.07;;;2.50;;
59115;SDS011;53564;51.930;4.640;2022-10-16T03:43:40;7.30;;;2.22;;
59115;SDS011;53564;51.930;4.640;2022-10-16T03:46:05;7.00;;;2.38;;
59115;SDS011;53564;51.930;4.640;2022-10-16T03:48:31;6.63;;;2.30;;
59115;SDS011;53564;51.930;4.640;2022-10-16T03:50:57;9.10;;;2.35;;
59115;SDS011;53564;51.930;4.640;2022-10-16T03:53:22;8.35;;;2.40;;
59115;SDS011;53564;51.930;4.640;2022-10-16T03:55:47;7.05;;;2.42;;
59115;SDS011;53564;51.930;4.640;2022-10-16T03:58:13;11.75;;;2.60;;
59115;SDS011;53564;51.930;4.640;2022-10-16T04:00:42;6.90;;;2.22;;
59115;SDS011;53564;51.930;4.640;2022-10-16T04:03:08;7.93;;;2.40;;
59115;SDS011;53564;51.930;4.640;2022-10-16T04:05:34;7.22;;;2.28;;
59115;SDS011;53564;51.930;4.640;2022-10-16T04:07:59;11.38;;;2.58;;
59115;SDS011;53564;51.930;4.640;2022-10-16T04:10:24;11.55;;;2.50;;
59115;SDS011;53564;51.930;4.640;2022-10-16T04:12:50;10.70;;;2.40;;
59115;SDS011;53564;51.930;4.640;2022-10-16T04:15:15;6.57;;;2.33;;
59115;SDS011;53564;51.930;4.640;2022-10-16T04:17:40;8.82;;;2.40;;
59115;SDS011;53564;51.930;4.640;2022-10-16T04:20:06;5.65;;;1.85;;
59115;SDS011;53564;51.930;4.640;2022-10-16T04:22:31;11.00;;;2.20;;
59115;SDS011;53564;51.930;4.640;2022-10-16T04:24:56;9.60;;;2.60;;
59115;SDS011;53564;51.930;4.640;2022-10-16T04:27:22;6.72;;;2.28;;
59115;SDS011;53564;51.930;4.640;2022-10-16T04:29:47;7.25;;;2.00;;
59115;SDS011;53564;51.930;4.640;2022-10-16T04:32:12;8.00;;;2.55;;
59115;SDS011;53564;51.930;4.640;2022-10-16T04:34:38;9.05;;;2.80;;
59115;SDS011;53564;51.930;4.640;2022-10-16T04:37:04;9.98;;;2.60;;
59115;SDS011;53564;51.930;4.640;2022-10-16T04:39:29;8.50;;;2.42;;
59115;SDS011;53564;51.930;4.640;2022-10-16T04:41:54;8.93;;;2.65;;
59115;SDS011;53564;51.930;4.640;2022-10-16T04:44:20;8.85;;;2.42;;
59115;SDS011;53564;51.930;4.640;2022-10-16T04:46:45;6.00;;;2.30;;
59115;SDS011;53564;51.930;4.640;2022-10-16T04:49:10;8.05;;;2.38;;
59115;SDS011;53564;51.930;4.640;2022-10-16T04:51:38;8.63;;;2.30;;
59115;SDS011;53564;51.930;4.640;2022-10-16T04:54:03;7.25;;;2.33;;
59115;SDS011;53564;51.930;4.640;2022-10-16T04:56:29;6.18;;;1.40;;
59115;SDS011;53564;51.930;4.640;2022-10-16T04:58:54;10.45;;;2.30;;
59115;SDS011;53564;51.930;4.640;2022-10-16T05:01:19;10.02;;;2.60;;
59115;SDS011;53564;51.930;4.640;2022-10-16T05:03:44;7.18;;;2.40;;
59115;SDS011;53564;51.930;4.640;2022-10-16T05:06:10;6.00;;;2.30;;
59115;SDS011;53564;51.930;4.640;2022-10-16T05:08:36;8.32;;;2.47;;
59115;SDS011;53564;51.930;4.640;2022-10-16T05:11:01;5.70;;;2.42;;
59115;SDS011;53564;51.930;4.640;2022-10-16T05:13:26;7.53;;;2.20;;
59115;SDS011;53564;51.930;4.640;2022-10-16T05:15:52;6.30;;;2.30;;
59115;SDS011;53564;51.930;4.640;2022-10-16T05:18:17;9.10;;;2.58;;
59115;SDS011;53564;51.930;4.640;2022-10-16T05:20:42;8.18;;;2.50;;
59115;SDS011;53564;51.930;4.640;2022-10-16T05:23:08;7.35;;;2.40;;
59115;SDS011;53564;51.930;4.640;2022-10-16T05:25:35;8.23;;;2.60;;
59115;SDS011;53564;51.930;4.640;2022-10-16T05:28:00;9.80;;;2.67;;
59115;SDS011;53564;51.930;4.640;2022-10-16T05:30:25;9.30;;;3.05;;
59115;SDS011;53564;51.930;4.640;2022-10-16T05:32:51;7.40;;;2.60;;
59115;SDS011;53564;51.930;4.640;2022-10-16T05:35:16;6.32;;;2.40;;
59115;SDS011;53564;51.930;4.640;2022-10-16T05:37:43;9.23;;;2.30;;
59115;SDS011;53564;51.930;4.640;2022-10-16T05:40:08;6.60;;;2.30;;
59115;SDS011;53564;51.930;4.640;2022-10-16T05:42:34;8.25;;;2.45;;
59115;SDS011;53564;51.930;4.640;2022-10-16T05:44:59;8.75;;;2.60;;
59115;SDS011;53564;51.930;4.640;2022-10-16T05:47:25;7.18;;;2.28;;
59115;SDS011;53564;51.930;4.640;2022-10-16T05:49:51;7.82;;;2.10;;
59115;SDS011;53564;51.930;4.640;2022-10-16T05:52:16;6.88;;;2.20;;
59115;SDS011;53564;51.930;4.640;2022-10-16T05:54:41;11.43;;;3.25;;
59115;SDS011;53564;51.930;4.640;2022-10-16T05:57:06;11.18;;;2.45;;
59115;SDS011;53564;51.930;4.640;2022-10-16T05:59:32;8.75;;;2.70;;
59115;SDS011;53564;51.930;4.640;2022-10-16T06:01:57;8.25;;;1.90;;
59115;SDS011;53564;51.930;4.640;2022-10-16T06:04:22;7.93;;;2.50;;
59115;SDS011;53564;51.930;4.640;2022-10-16T06:06:48;10.40;;;2.50;;
59115;SDS011;53564;51.930;4.640;2022-10-16T06:09:13;7.30;;;2.50;;
59115;SDS011;53564;51.930;4.640;2022-10-16T06:11:39;6.40;;;2.30;;
59115;SDS011;53564;51.930;4.640;2022-10-16T06:14:04;8.15;;;2.40;;
59115;SDS011;53564;51.930;4.640;2022-10-16T06:16:32;8.13;;;2.15;;
59115;SDS011;53564;51.930;4.640;2022-10-16T06:18:58;7.70;;;2.40;;
59115;SDS011;53564;51.930;4.640;2022-10-16T06:21:27;9.07;;;2.90;;
59115;SDS011;53564;51.930;4.640;2022-10-16T06:23:53;7.10;;;2.30;;
59115;SDS011;53564;51.930;4.640;2022-10-16T06:26:21;3.40;;;1.65;;
59115;SDS011;53564;51.930;4.640;2022-10-16T06:28:48;6.60;;;1.95;;
59115;SDS011;53564;51.930;4.640;2022-10-16T06:31:14;8.55;;;2.03;;
59115;SDS011;53564;51.930;4.640;2022-10-16T06:33:40;8.25;;;1.83;;
59115;SDS011;53564;51.930;4.640;2022-10-16T06:36:07;8.13;;;2.10;;
59115;SDS011;53564;51.930;4.640;2022-10-16T06:38:35;8.88;;;2.13;;
59115;SDS011;53564;51.930;4.640;2022-10-16T06:41:01;7.65;;;2.40;;
59115;SDS011;53564;51.930;4.640;2022-10-16T06:43:27;11.15;;;3.17;;
59115;SDS011;53564;51.930;4.640;2022-10-16T06:45:56;10.80;;;2.70;;
59115;SDS011;53564;51.930;4.640;2022-10-16T06:48:23;5.97;;;2.47;;
59115;SDS011;53564;51.930;4.640;2022-10-16T06:50:58;10.80;;;2.78;;
59115;SDS011;53564;51.930;4.640;2022-10-16T06:53:38;9.95;;;2.38;;
59115;SDS011;53564;51.930;4.640;2022-10-16T06:56:06;8.68;;;2.33;;
59115;SDS011;53564;51.930;4.640;2022-10-16T06:58:36;7.70;;;2.58;;
59115;SDS011;53564;51.930;4.640;2022-10-16T07:01:01;6.43;;;2.38;;
59115;SDS011;53564;51.930;4.640;2022-10-16T07:03:27;8.27;;;2.50;;
59115;SDS011;53564;51.930;4.640;2022-10-16T07:05:52;11.23;;;2.70;;
59115;SDS011;53564;51.930;4.640;2022-10-16T07:08:17;6.63;;;2.30;;
59115;SDS011;53564;51.930;4.640;2022-10-16T07:10:43;9.05;;;2.30;;
59115;SDS011;53564;51.930;4.640;2022-10-16T07:13:08;9.48;;;2.30;;
59115;SDS011;53564;51.930;4.640;2022-10-16T07:15:33;9.15;;;2.33;;
59115;SDS011;53564;51.930;4.640;2022-10-16T07:17:58;13.65;;;3.00;;
59115;SDS011;53564;51.930;4.640;2022-10-16T07:20:24;7.80;;;2.42;;
59115;SDS011;53564;51.930;4.640;2022-10-16T07:22:49;8.75;;;2.30;;
59115;SDS011;53564;51.930;4.640;2022-10-16T07:25:16;10.68;;;2.53;;
59115;SDS011;53564;51.930;4.640;2022-10-16T07:27:41;7.18;;;2.20;;
59115;SDS011;53564;51.930;4.640;2022-10-16T07:30:06;12.57;;;3.00;;
59115;SDS011;53564;51.930;4.640;2022-10-16T07:32:32;9.52;;;2.88;;
59115;SDS011;53564;51.930;4.640;2022-10-16T07:34:57;6.70;;;2.50;;
59115;SDS011;53564;51.930;4.640;2022-10-16T07:37:22;11.10;;;2.97;;
59115;SDS011;53564;51.930;4.640;2022-10-16T07:39:48;9.32;;;2.83;;
59115;SDS011;53564;51.930;4.640;2022-10-16T07:42:13;10.85;;;2.90;;
59115;SDS011;53564;51.930;4.640;2022-10-16T07:44:38;10.43;;;2.80;;
59115;SDS011;53564;51.930;4.640;2022-10-16T07:47:04;10.02;;;3.10;;
59115;SDS011;53564;51.930;4.640;2022-10-16T07:49:30;13.82;;;2.63;;
59115;SDS011;53564;51.930;4.640;2022-10-16T07:51:55;10.25;;;2.63;;
59115;SDS011;53564;51.930;4.640;2022-10-16T07:54:21;8.45;;;2.30;;
59115;SDS011;53564;51.930;4.640;2022-10-16T07:56:46;10.13;;;2.63;;
59115;SDS011;53564;51.930;4.640;2022-10-16T07:59:11;8.20;;;2.40;;
59115;SDS011;53564;51.930;4.640;2022-10-16T08:01:37;8.38;;;2.20;;
59115;SDS011;53564;51.930;4.640;2022-10-16T08:04:02;7.70;;;2.30;;
59115;SDS011;53564;51.930;4.640;2022-10-16T08:06:28;8.90;;;2.45;;
59115;SDS011;53564;51.930;4.640;2022-10-16T08:08:53;11.52;;;2.60;;
59115;SDS011;53564;51.930;4.640;2022-10-16T08:11:19;6.35;;;2.22;;
59115;SDS011;53564;51.930;4.640;2022-10-16T08:13:44;8.68;;;2.13;;
59115;SDS011;53564;51.930;4.640;2022-10-16T08:16:09;9.88;;;2.90;;
59115;SDS011;53564;51.930;4.640;2022-10-16T08:18:35;14.68;;;2.47;;
59115;SDS011;53564;51.930;4.640;2022-10-16T08:21:01;10.40;;;2.40;;
59115;SDS011;53564;51.930;4.640;2022-10-16T08:23:27;6.25;;;2.25;;
59115;SDS011;53564;51.930;4.640;2022-10-16T08:25:53;9.75;;;2.38;;
59115;SDS011;53564;51.930;4.640;2022-10-16T08:28:20;11.25;;;2.58;;
59115;SDS011;53564;51.930;4.640;2022-10-16T08:30:45;10.57;;;2.80;;
59115;SDS011;53564;51.930;4.640;2022-10-16T08:33:11;7.80;;;2.38;;
59115;SDS011;53564;51.930;4.640;2022-10-16T08:35:36;7.47;;;2.30;;
59115;SDS011;53564;51.930;4.640;2022-10-16T08:38:04;10.07;;;2.42;;
59115;SDS011;53564;51.930;4.640;2022-10-16T08:40:31;4.25;;;1.52;;
59115;SDS011;53564;51.930;4.640;2022-10-16T08:51:04;11.32;;;2.60;;
59115;SDS011;53564;51.930;4.640;2022-10-16T08:53:36;10.27;;;2.38;;
59115;SDS011;53564;51.930;4.640;2022-10-16T08:56:09;11.82;;;2.55;;
59115;SDS011;53564;51.930;4.640;2022-10-16T08:58:34;11.73;;;2.55;;
59115;SDS011;53564;51.930;4.640;2022-10-16T09:01:01;14.43;;;3.08;;
59115;SDS011;53564;51.930;4.640;2022-10-16T09:03:39;9.77;;;2.97;;
59115;SDS011;53564;51.930;4.640;2022-10-16T09:11:53;13.60;;;3.10;;
59115;SDS011;53564;51.930;4.640;2022-10-16T09:17:33;11.40;;;2.35;;
59115;SDS011;53564;51.930;4.640;2022-10-16T09:22:43;10.10;;;2.97;;
59115;SDS011;53564;51.930;4.640;2022-10-16T09:25:13;13.48;;;2.75;;
59115;SDS011;53564;51.930;4.640;2022-10-16T09:27:40;12.43;;;2.65;;
59115;SDS011;53564;51.930;4.640;2022-10-16T09:30:19;13.35;;;3.20;;
59115;SDS011;53564;51.930;4.640;2022-10-16T09:32:47;14.77;;;2.97;;
59115;SDS011;53564;51.930;4.640;2022-10-16T09:35:16;11.70;;;2.47;;
59115;SDS011;53564;51.930;4.640;2022-10-16T09:37:44;10.73;;;2.90;;
59115;SDS011;53564;51.930;4.640;2022-10-16T09:40:12;17.20;;;3.00;;
59115;SDS011;53564;51.930;4.640;2022-10-16T09:42:48;9.75;;;2.60;;
59115;SDS011;53564;51.930;4.640;2022-10-16T09:45:21;8.38;;;2.72;;
59115;SDS011;53564;51.930;4.640;2022-10-16T09:47:48;15.93;;;3.33;;
59115;SDS011;53564;51.930;4.640;2022-10-16T09:50:27;13.27;;;2.47;;
59115;SDS011;53564;51.930;4.640;2022-10-16T09:53:03;11.98;;;3.40;;
59115;SDS011;53564;51.930;4.640;2022-10-16T09:55:48;11.88;;;2.80;;
59115;SDS011;53564;51.930;4.640;2022-10-16T09:58:17;9.38;;;2.35;;
59115;SDS011;53564;51.930;4.640;2022-10-16T10:00:49;14.80;;;2.67;;
59115;SDS011;53564;51.930;4.640;2022-10-16T10:03:33;4.43;;;1.77;;
59115;SDS011;53564;51.930;4.640;2022-10-16T10:06:03;8.13;;;2.50;;
59115;SDS011;53564;51.930;4.640;2022-10-16T10:08:40;12.70;;;2.50;;
59115;SDS011;53564;51.930;4.640;2022-10-16T10:11:05;11.77;;;2.63;;
59115;SDS011;53564;51.930;4.640;2022-10-16T10:13:30;15.85;;;3.05;;
59115;SDS011;53564;51.930;4.640;2022-10-16T10:15:56;14.38;;;2.95;;
59115;SDS011;53564;51.930;4.640;2022-10-16T10:18:21;12.52;;;2.28;;
59115;SDS011;53564;51.930;4.640;2022-10-16T10:21:01;16.08;;;3.33;;
59115;SDS011;53564;51.930;4.640;2022-10-16T10:23:28;14.45;;;2.47;;
59115;SDS011;53564;51.930;4.640;2022-10-16T10:26:14;15.02;;;3.17;;
59115;SDS011;53564;51.930;4.640;2022-10-16T10:36:42;10.40;;;2.47;;
59115;SDS011;53564;51.930;4.640;2022-10-16T10:39:25;13.73;;;2.40;;
59115;SDS011;53564;51.930;4.640;2022-10-16T11:00:37;12.63;;;2.95;;
59115;SDS011;53564;51.930;4.640;2022-10-16T11:05:52;9.70;;;2.30;;
59115;SDS011;53564;51.930;4.640;2022-10-16T11:08:28;9.80;;;2.88;;
59115;SDS011;53564;51.930;4.640;2022-10-16T11:11:16;12.20;;;2.40;;
59115;SDS011;53564;51.930;4.640;2022-10-16T11:16:39;15.32;;;2.60;;
59115;SDS011;53564;51.930;4.640;2022-10-16T11:21:39;12.88;;;3.00;;
59115;SDS011;53564;51.930;4.640;2022-10-16T11:27:22;18.67;;;3.08;;
59115;SDS011;53564;51.930;4.640;2022-10-16T11:29:59;11.57;;;2.47;;
59115;SDS011;53564;51.930;4.640;2022-10-16T11:32:35;9.65;;;2.42;;
59115;SDS011;53564;51.930;4.640;2022-10-16T11:35:17;9.90;;;2.08;;
59115;SDS011;53564;51.930;4.640;2022-10-16T11:37:50;13.80;;;2.72;;
59115;SDS011;53564;51.930;4.640;2022-10-16T11:42:49;12.95;;;2.22;;
59115;SDS011;53564;51.930;4.640;2022-10-16T11:48:15;9.65;;;2.47;;
59115;SDS011;53564;51.930;4.640;2022-10-16T11:50:54;15.70;;;2.33;;
59115;SDS011;53564;51.930;4.640;2022-10-16T11:56:15;14.20;;;2.50;;
59115;SDS011;53564;51.930;4.640;2022-10-16T12:01:49;16.85;;;2.45;;
59115;SDS011;53564;51.930;4.640;2022-10-16T12:07:11;11.48;;;2.08;;
59115;SDS011;53564;51.930;4.640;2022-10-16T12:09:42;13.30;;;2.50;;
59115;SDS011;53564;51.930;4.640;2022-10-16T12:12:27;8.95;;;1.85;;
59115;SDS011;53564;51.930;4.640;2022-10-16T12:15:18;9.20;;;2.00;;
59115;SDS011;53564;51.930;4.640;2022-10-16T12:17:46;14.15;;;2.65;;
59115;SDS011;53564;51.930;4.640;2022-10-16T12:22:40;11.13;;;2.30;;
59115;SDS011;53564;51.930;4.640;2022-10-16T12:25:26;12.52;;;2.78;;
59115;SDS011;53564;51.930;4.640;2022-10-16T12:28:05;13.02;;;2.72;;
59115;SDS011;53564;51.930;4.640;2022-10-16T12:30:42;10.38;;;2.20;;
59115;SDS011;53564;51.930;4.640;2022-10-16T12:33:19;13.98;;;2.67;;
59115;SDS011;53564;51.930;4.640;2022-10-16T12:35:48;12.02;;;1.98;;
59115;SDS011;53564;51.930;4.640;2022-10-16T12:38:19;14.93;;;2.40;;
59115;SDS011;53564;51.930;4.640;2022-10-16T12:40:56;9.35;;;2.10;;
59115;SDS011;53564;51.930;4.640;2022-10-16T12:43:26;12.32;;;2.40;;
59115;SDS011;53564;51.930;4.640;2022-10-16T12:46:19;14.75;;;2.58;;
59115;SDS011;53564;51.930;4.640;2022-10-16T12:48:47;9.48;;;2.00;;
59115;SDS011;53564;51.930;4.640;2022-10-16T12:51:33;15.00;;;2.67;;
59115;SDS011;53564;51.930;4.640;2022-10-16T13:00:04;13.23;;;2.38;;
59115;SDS011;53564;51.930;4.640;2022-10-16T13:02:51;12.18;;;2.10;;
59115;SDS011;53564;51.930;4.640;2022-10-16T13:11:10;16.52;;;2.70;;
59115;SDS011;53564;51.930;4.640;2022-10-16T13:17:01;12.52;;;2.35;;
59115;SDS011;53564;51.930;4.640;2022-10-16T13:19:26;12.27;;;2.42;;
59115;SDS011;53564;51.930;4.640;2022-10-16T13:22:01;10.93;;;2.20;;
59115;SDS011;53564;51.930;4.640;2022-10-16T13:27:45;10.60;;;2.10;;
59115;SDS011;53564;51.930;4.640;2022-10-16T13:30:17;12.55;;;2.42;;
59115;SDS011;53564;51.930;4.640;2022-10-16T13:32:50;12.40;;;2.38;;
59115;SDS011;53564;51.930;4.640;2022-10-16T13:35:21;12.02;;;2.42;;
59115;SDS011;53564;51.930;4.640;2022-10-16T13:37:49;11.23;;;3.13;;
59115;SDS011;53564;51.930;4.640;2022-10-16T13:40:21;12.50;;;2.47;;
59115;SDS011;53564;51.930;4.640;2022-10-16T13:42:49;16.85;;;2.63;;
59115;SDS011;53564;51.930;4.640;2022-10-16T13:45:25;11.30;;;2.55;;
59115;SDS011;53564;51.930;4.640;2022-10-16T13:48:01;10.65;;;2.28;;
59115;SDS011;53564;51.930;4.640;2022-10-16T13:50:27;16.65;;;2.75;;
59115;SDS011;53564;51.930;4.640;2022-10-16T13:53:02;14.55;;;2.72;;
59115;SDS011;53564;51.930;4.640;2022-10-16T13:55:31;11.20;;;2.15;;
59115;SDS011;53564;51.930;4.640;2022-10-16T13:58:04;14.00;;;3.08;;
59115;SDS011;53564;51.930;4.640;2022-10-16T14:00:33;12.70;;;2.75;;
59115;SDS011;53564;51.930;4.640;2022-10-16T14:03:04;10.90;;;2.75;;
59115;SDS011;53564;51.930;4.640;2022-10-16T14:05:32;9.65;;;2.53;;
59115;SDS011;53564;51.930;4.640;2022-10-16T14:07:58;14.13;;;2.20;;
59115;SDS011;53564;51.930;4.640;2022-10-16T14:10:25;14.48;;;2.55;;
59115;SDS011;53564;51.930;4.640;2022-10-16T14:12:55;13.77;;;2.78;;
59115;SDS011;53564;51.930;4.640;2022-10-16T14:15:29;13.23;;;2.60;;
59115;SDS011;53564;51.930;4.640;2022-10-16T14:17:56;13.23;;;2.45;;
59115;SDS011;53564;51.930;4.640;2022-10-16T14:20:26;15.77;;;2.70;;
59115;SDS011;53564;51.930;4.640;2022-10-16T14:23:01;13.02;;;2.42;;
59115;SDS011;53564;51.930;4.640;2022-10-16T14:25:31;10.88;;;2.42;;
59115;SDS011;53564;51.930;4.640;2022-10-16T14:30:37;12.77;;;2.92;;
59115;SDS011;53564;51.930;4.640;2022-10-16T14:33:37;15.48;;;3.45;;
59115;SDS011;53564;51.930;4.640;2022-10-16T14:36:03;13.88;;;2.92;;
59115;SDS011;53564;51.930;4.640;2022-10-16T14:38:34;11.93;;;2.67;;
59115;SDS011;53564;51.930;4.640;2022-10-16T14:41:01;17.95;;;2.97;;
59115;SDS011;53564;51.930;4.640;2022-10-16T14:43:31;13.27;;;3.05;;
59115;SDS011;53564;51.930;4.640;2022-10-16T14:45:57;7.78;;;2.17;;
59115;SDS011;53564;51.930;4.640;2022-10-16T14:48:23;13.75;;;2.40;;
59115;SDS011;53564;51.930;4.640;2022-10-16T14:50:49;13.15;;;2.35;;
59115;SDS011;53564;51.930;4.640;2022-10-16T14:53:15;12.50;;;2.47;;
59115;SDS011;53564;51.930;4.640;2022-10-16T14:55:40;10.90;;;2.60;;
59115;SDS011;53564;51.930;4.640;2022-10-16T14:58:09;15.65;;;3.17;;
59115;SDS011;53564;51.930;4.640;2022-10-16T15:03:05;17.80;;;2.90;;
59115;SDS011;53564;51.930;4.640;2022-10-16T15:05:30;13.80;;;2.30;;
59115;SDS011;53564;51.930;4.640;2022-10-16T15:07:57;12.82;;;2.70;;
59115;SDS011;53564;51.930;4.640;2022-10-16T15:10:23;14.85;;;2.85;;
59115;SDS011;53564;51.930;4.640;2022-10-16T15:12:50;13.38;;;3.00;;
59115;SDS011;53564;51.930;4.640;2022-10-16T15:17:51;13.52;;;2.65;;
59115;SDS011;53564;51.930;4.640;2022-10-16T15:20:18;12.48;;;3.25;;
59115;SDS011;53564;51.930;4.640;2022-10-16T15:22:44;11.02;;;3.03;;
59115;SDS011;53564;51.930;4.640;2022-10-16T15:27:50;13.00;;;3.53;;
59115;SDS011;53564;51.930;4.640;2022-10-16T15:30:15;15.15;;;3.60;;
59115;SDS011;53564;51.930;4.640;2022-10-16T15:32:40;13.80;;;3.20;;
59115;SDS011;53564;51.930;4.640;2022-10-16T15:35:08;13.77;;;3.05;;
59115;SDS011;53564;51.930;4.640;2022-10-16T15:37:33;12.35;;;3.40;;
59115;SDS011;53564;51.930;4.640;2022-10-16T15:39:59;14.20;;;3.38;;
59115;SDS011;53564;51.930;4.640;2022-10-16T15:42:24;14.70;;;3.17;;
59115;SDS011;53564;51.930;4.640;2022-10-16T15:44:49;11.68;;;2.88;;
59115;SDS011;53564;51.930;4.640;2022-10-16T15:47:14;14.40;;;2.85;;
59115;SDS011;53564;51.930;4.640;2022-10-16T15:49:40;10.07;;;2.70;;
59115;SDS011;53564;51.930;4.640;2022-10-16T15:52:05;12.30;;;2.72;;
59115;SDS011;53564;51.930;4.640;2022-10-16T15:54:30;16.58;;;2.97;;
59115;SDS011;53564;51.930;4.640;2022-10-16T15:56:55;14.18;;;3.67;;
59115;SDS011;53564;51.930;4.640;2022-10-16T15:59:21;15.93;;;3.05;;
59115;SDS011;53564;51.930;4.640;2022-10-16T16:01:46;13.55;;;3.92;;
59115;SDS011;53564;51.930;4.640;2022-10-16T16:04:11;17.38;;;4.10;;
59115;SDS011;53564;51.930;4.640;2022-10-16T16:06:37;12.65;;;3.05;;
59115;SDS011;53564;51.930;4.640;2022-10-16T16:09:04;10.05;;;3.17;;
59115;SDS011;53564;51.930;4.640;2022-10-16T16:11:29;14.20;;;2.92;;
59115;SDS011;53564;51.930;4.640;2022-10-16T16:13:56;13.98;;;2.97;;
59115;SDS011;53564;51.930;4.640;2022-10-16T16:16:22;14.60;;;3.80;;
59115;SDS011;53564;51.930;4.640;2022-10-16T16:18:47;14.50;;;3.15;;
59115;SDS011;53564;51.930;4.640;2022-10-16T16:21:14;11.48;;;2.90;;
59115;SDS011;53564;51.930;4.640;2022-10-16T16:23:39;17.67;;;3.75;;
59115;SDS011;53564;51.930;4.640;2022-10-16T16:26:15;11.25;;;2.80;;
59115;SDS011;53564;51.930;4.640;2022-10-16T16:28:45;12.80;;;3.80;;
59115;SDS011;53564;51.930;4.640;2022-10-16T16:31:10;16.83;;;5.18;;
59115;SDS011;53564;51.930;4.640;2022-10-16T16:33:36;16.08;;;5.22;;
59115;SDS011;53564;51.930;4.640;2022-10-16T16:36:02;16.85;;;4.70;;
59115;SDS011;53564;51.930;4.640;2022-10-16T16:38:29;14.15;;;5.63;;
59115;SDS011;53564;51.930;4.640;2022-10-16T16:40:54;17.33;;;5.25;;
59115;SDS011;53564;51.930;4.640;2022-10-16T16:43:26;20.55;;;5.28;;